Time;durP1;ratioP1;P1;durP2;ratioP2;P2;SDS_P1;SDS_P2;PMS_P1;PMS_P2;Temp;Humidity;BMP_temperature;BMP_pressure;BME280_temperature;BME280_humidity;BME280_pressure;Samples;Min_cycle;Max_cycle;Signal;HPM_P1;HPM_P2
2021/12/28 00:01:16;;;;;;;41.20;10.30;;;;;;;-145.45;100.00;62759.84;5260935;28;20022;-85
2021/12/28 00:03:48;;;;;;;48.97;12.63;;;;;;;-145.45;100.00;62759.84;5263078;28;20033;-84
2021/12/28 00:06:20;;;;;;;45.67;12.82;;;;;;;-145.45;100.00;62759.84;5259206;28;20104;-85
2021/12/28 00:08:51;;;;;;;43.13;11.25;;;;;;;-145.45;100.00;62759.84;5259676;28;20045;-85
2021/12/28 00:11:23;;;;;;;43.10;11.05;;;;;;;-145.45;100.00;62759.84;5259578;28;20059;-85
2021/12/28 00:14:00;;;;;;;43.30;12.13;;;;;;;-145.45;100.00;62759.84;5269421;28;20029;-85
2021/12/28 00:19:24;;;;;;;50.65;12.27;;;;;;;-145.45;100.00;62759.84;5250973;28;20030;-85
2021/12/28 00:21:55;;;;;;;43.90;13.75;;;;;;;-145.45;100.00;62759.84;5261580;28;20528;-85
2021/12/28 00:24:26;;;;;;;38.75;12.27;;;;;;;-145.45;100.00;62759.84;5247295;28;20482;-86
2021/12/28 00:26:58;;;;;;;40.83;12.57;;;;;;;-145.45;100.00;62759.84;5267551;28;20057;-85
2021/12/28 00:29:29;;;;;;;51.35;14.23;;;;;;;-145.45;100.00;62759.84;5265964;28;20492;-85
2021/12/28 00:32:01;;;;;;;42.20;11.88;;;;;;;-145.45;100.00;62759.84;5242826;28;20461;-85
2021/12/28 00:34:34;;;;;;;52.05;12.77;;;;;;;-145.45;100.00;62759.84;5266980;28;20029;-85
2021/12/28 00:37:05;;;;;;;43.92;11.95;;;;;;;-145.45;100.00;62759.84;5271240;28;20018;-86
2021/12/28 00:39:37;;;;;;;45.55;13.27;;;;;;;-145.45;100.00;62759.84;5263600;28;20060;-85
2021/12/28 00:42:08;;;;;;;47.60;12.93;;;;;;;-145.45;100.00;62759.84;5275414;28;20041;-86
2021/12/28 00:44:40;;;;;;;50.53;12.73;;;;;;;-145.45;100.00;62759.84;5267353;28;20085;-85
2021/12/28 00:47:15;;;;;;;54.55;13.60;;;;;;;-145.45;100.00;62759.84;5255581;28;20034;-85
2021/12/28 00:49:46;;;;;;;52.25;12.80;;;;;;;-145.45;100.00;62759.84;5275504;28;26096;-86
2021/12/28 00:52:17;;;;;;;50.05;13.98;;;;;;;-145.45;100.00;62759.84;5276546;28;20036;-85
2021/12/28 00:54:49;;;;;;;51.47;11.60;;;;;;;-145.45;100.00;62759.84;5270027;28;20350;-86
2021/12/28 00:57:20;;;;;;;44.50;12.15;;;;;;;-145.45;100.00;62759.84;5255959;28;20036;-85
2021/12/28 00:59:51;;;;;;;52.53;13.20;;;;;;;-145.45;100.00;62759.84;5275457;28;38901;-85
2021/12/28 01:02:23;;;;;;;58.00;11.85;;;;;;;-145.45;100.00;62759.84;5271587;28;20053;-86
2021/12/28 01:04:54;;;;;;;52.63;11.90;;;;;;;-145.45;100.00;62759.84;5240256;28;20024;-85
2021/12/28 01:07:25;;;;;;;50.90;11.93;;;;;;;-145.45;100.00;62759.84;5275230;28;20467;-85
2021/12/28 01:09:57;;;;;;;45.45;9.93;;;;;;;-145.45;100.00;62759.84;5267981;28;20048;-86
2021/12/28 01:12:28;;;;;;;48.50;10.90;;;;;;;-145.45;100.00;62759.84;5265761;28;20104;-85
2021/12/28 01:15:00;;;;;;;39.63;11.30;;;;;;;-145.45;100.00;62759.84;5241438;28;20026;-86
2021/12/28 01:17:31;;;;;;;54.22;12.68;;;;;;;-145.45;100.00;62759.84;5260186;28;20104;-85
2021/12/28 01:20:05;;;;;;;49.75;9.75;;;;;;;-145.45;100.00;62759.84;5248822;28;20133;-84
2021/12/28 01:22:38;;;;;;;54.42;10.90;;;;;;;-145.45;100.00;62759.84;5263603;28;20026;-85
2021/12/28 01:25:11;;;;;;;54.08;12.02;;;;;;;-145.45;100.00;62759.84;5284101;28;20025;-85
2021/12/28 01:27:43;;;;;;;57.30;10.25;;;;;;;-145.45;100.00;62759.84;5250229;28;20038;-85
2021/12/28 01:30:17;;;;;;;60.05;11.20;;;;;;;-145.45;100.00;62759.84;5245935;28;20490;-85
2021/12/28 01:32:50;;;;;;;47.75;14.50;;;;;;;-145.45;100.00;62759.84;5244724;28;20022;-85
2021/12/28 01:35:21;;;;;;;42.72;9.52;;;;;;;-145.45;100.00;62759.84;5243446;28;20122;-85
2021/12/28 01:37:53;;;;;;;59.83;10.90;;;;;;;-145.45;100.00;62759.84;5258340;28;20116;-85
2021/12/28 01:40:28;;;;;;;59.05;12.73;;;;;;;-145.45;100.00;62759.84;5256353;28;20128;-85
2021/12/28 01:43:08;;;;;;;52.03;12.17;;;;;;;-145.45;100.00;62759.84;5259589;28;20036;-84
2021/12/28 01:45:41;;;;;;;47.65;10.55;;;;;;;-145.45;100.00;62759.84;5246528;28;20107;-85
2021/12/28 01:48:18;;;;;;;50.65;10.02;;;;;;;-145.45;100.00;62759.84;5263077;28;20021;-85
2021/12/28 01:50:51;;;;;;;;;;;;;;;-145.45;100.00;62759.84;5235644;28;20026;-86
2021/12/28 01:53:24;;;;;;;45.75;10.35;;;;;;;-145.45;100.00;62759.84;5261584;28;20372;-85
2021/12/28 01:55:57;;;;;;;51.67;10.88;;;;;;;-145.45;100.00;62759.84;5241657;28;20479;-85
2021/12/28 01:58:29;;;;;;;49.72;10.15;;;;;;;-145.45;100.00;62759.84;5263285;28;20017;-85
2021/12/28 02:01:01;;;;;;;56.08;9.90;;;;;;;-145.45;100.00;62759.84;5260326;28;20531;-85
2021/12/28 02:03:35;;;;;;;63.47;11.43;;;;;;;-145.45;100.00;62759.84;5262335;28;20029;-84
2021/12/28 02:06:08;;;;;;;59.72;10.00;;;;;;;-145.45;100.00;62759.84;5251801;28;20061;-84
2021/12/28 02:08:40;;;;;;;46.90;10.95;;;;;;;-145.45;100.00;62759.84;5225435;28;20088;-84
2021/12/28 02:11:13;;;;;;;51.58;10.75;;;;;;;-145.45;100.00;62759.84;5259121;28;20034;-85
2021/12/28 02:13:45;;;;;;;54.78;10.80;;;;;;;-145.45;100.00;62759.84;5245265;28;20014;-85
2021/12/28 02:16:17;;;;;;;53.45;10.75;;;;;;;-145.45;100.00;62759.84;5248396;28;20045;-84
2021/12/28 02:18:48;;;;;;;49.60;10.25;;;;;;;-145.45;100.00;62759.84;5268034;28;20156;-84
2021/12/28 02:21:19;;;;;;;52.45;10.25;;;;;;;-145.45;100.00;62759.84;5248931;28;20435;-85
2021/12/28 02:23:51;;;;;;;44.08;9.63;;;;;;;-145.45;100.00;62759.84;5267374;28;20083;-84
2021/12/28 02:26:22;;;;;;;61.78;10.23;;;;;;;-145.45;100.00;62759.84;5265898;28;20038;-85
2021/12/28 02:28:54;;;;;;;58.38;9.52;;;;;;;-145.45;100.00;62759.84;5268137;28;20390;-85
2021/12/28 02:31:26;;;;;;;45.70;9.85;;;;;;;-145.45;100.00;62759.84;5267015;28;20018;-85
2021/12/28 02:34:00;;;;;;;64.50;10.02;;;;;;;-145.45;100.00;62759.84;5248938;28;20481;-85
2021/12/28 02:36:31;;;;;;;55.72;9.65;;;;;;;-145.45;100.00;62759.84;5253440;28;20443;-85
2021/12/28 02:39:03;;;;;;;57.28;10.45;;;;;;;-145.45;100.00;62759.84;5261029;28;20131;-85
2021/12/28 02:41:34;;;;;;;62.25;9.98;;;;;;;-145.45;100.00;62759.84;5242531;28;20018;-85
2021/12/28 02:44:06;;;;;;;51.97;10.15;;;;;;;-145.45;100.00;62759.84;5259854;28;20032;-85
2021/12/28 02:46:37;;;;;;;50.58;10.40;;;;;;;-145.45;100.00;62759.84;5243599;28;20026;-85
2021/12/28 02:49:09;;;;;;;49.60;10.00;;;;;;;-145.45;100.00;62759.84;5261153;28;20022;-84
2021/12/28 02:51:40;;;;;;;65.28;10.00;;;;;;;-145.45;100.00;62759.84;5244921;28;20026;-85
2021/12/28 02:54:11;;;;;;;65.32;10.95;;;;;;;-145.45;100.00;62759.84;5225422;28;20032;-85
2021/12/28 02:56:43;;;;;;;60.65;10.88;;;;;;;-145.45;100.00;62759.84;5249308;28;20017;-85
2021/12/28 02:59:14;;;;;;;50.55;9.02;;;;;;;-145.45;100.00;62759.84;5261840;28;20026;-86
2021/12/28 03:01:45;;;;;;;59.53;10.18;;;;;;;-145.45;100.00;62759.84;5244349;28;20080;-86
2021/12/28 03:04:17;;;;;;;52.47;9.20;;;;;;;-145.45;100.00;62759.84;5240244;28;20041;-86
2021/12/28 03:06:48;;;;;;;47.20;9.27;;;;;;;-145.45;100.00;62759.84;5250898;28;20091;-85
2021/12/28 03:09:20;;;;;;;67.90;10.52;;;;;;;-145.45;100.00;62759.84;5256037;28;20029;-85
2021/12/28 03:11:52;;;;;;;51.00;9.48;;;;;;;-145.45;100.00;62759.84;5250853;28;20466;-85
2021/12/28 03:14:23;;;;;;;50.45;8.80;;;;;;;-145.45;100.00;62759.84;5268702;28;20076;-85
2021/12/28 03:16:55;;;;;;;51.38;9.70;;;;;;;-145.45;100.00;62759.84;5258153;28;20048;-86
2021/12/28 03:19:26;;;;;;;55.45;9.25;;;;;;;-145.45;100.00;62759.84;5248209;28;20041;-86
2021/12/28 03:21:58;;;;;;;47.85;8.20;;;;;;;-145.45;100.00;62759.84;5261101;28;20068;-86
2021/12/28 03:24:30;;;;;;;47.67;7.53;;;;;;;-145.45;100.00;62759.84;5261807;28;20048;-85
2021/12/28 03:27:01;;;;;;;47.65;7.78;;;;;;;-145.45;100.00;62759.84;5261615;28;20398;-85
2021/12/28 03:29:33;;;;;;;53.20;9.00;;;;;;;-145.45;100.00;62759.84;5227787;28;20022;-85
2021/12/28 03:32:04;;;;;;;40.53;7.90;;;;;;;-145.45;100.00;62759.84;5259159;28;20025;-85
2021/12/28 03:34:36;;;;;;;47.58;9.05;;;;;;;-145.45;100.00;62759.84;5262032;28;20045;-86
2021/12/28 03:37:08;;;;;;;48.22;7.47;;;;;;;-145.45;100.00;62759.84;5263273;28;20407;-85
2021/12/28 03:39:40;;;;;;;47.08;8.52;;;;;;;-145.45;100.00;62759.84;5240273;28;20060;-85
2021/12/28 03:42:11;;;;;;;54.72;7.55;;;;;;;-145.45;100.00;62759.84;5253668;28;20022;-85
2021/12/28 03:44:42;;;;;;;45.13;7.25;;;;;;;-145.45;100.00;62759.84;5242516;28;20101;-85
2021/12/28 03:47:14;;;;;;;37.67;6.88;;;;;;;-145.45;100.00;62759.84;5240880;28;20076;-85
2021/12/28 03:49:45;;;;;;;47.45;7.30;;;;;;;-145.45;100.00;62759.84;5229114;28;20485;-85
2021/12/28 03:52:16;;;;;;;52.67;10.63;;;;;;;-145.45;100.00;62759.84;5258564;28;20080;-86
2021/12/28 03:54:48;;;;;;;38.67;7.05;;;;;;;-145.45;100.00;62759.84;5238738;28;20052;-85
2021/12/28 03:57:19;;;;;;;34.40;7.10;;;;;;;-145.45;100.00;62759.84;5257259;28;20498;-85
2021/12/28 03:59:50;;;;;;;36.28;7.20;;;;;;;-145.45;100.00;62759.84;5227660;28;22267;-85
2021/12/28 04:02:22;;;;;;;37.17;7.00;;;;;;;-145.45;100.00;62759.84;5250545;28;20080;-84
2021/12/28 04:04:53;;;;;;;47.40;8.13;;;;;;;-145.45;100.00;62759.84;5243322;28;20025;-85
2021/12/28 04:07:24;;;;;;;40.60;7.13;;;;;;;-145.45;100.00;62759.84;5256397;28;20046;-85
2021/12/28 04:12:28;;;;;;;40.58;6.03;;;;;;;-145.45;100.00;62759.84;5239328;28;20398;-85
2021/12/28 04:15:00;;;;;;;51.10;9.32;;;;;;;-145.45;100.00;62759.84;5240178;28;20086;-85
2021/12/28 04:17:36;;;;;;;46.30;5.70;;;;;;;-145.45;100.00;62759.84;5222269;28;20053;-85
2021/12/28 04:20:13;;;;;;;50.97;7.03;;;;;;;-145.45;100.00;62759.84;5238958;28;20061;-85
2021/12/28 04:22:45;;;;;;;41.75;7.07;;;;;;;-145.45;100.00;62759.84;5239767;28;20026;-85
2021/12/28 04:25:18;;;;;;;34.10;5.90;;;;;;;-145.45;100.00;62759.84;5240448;28;20029;-85
2021/12/28 04:27:49;;;;;;;29.60;5.28;;;;;;;-145.45;100.00;62759.84;5240593;28;20239;-85
2021/12/28 04:30:20;;;;;;;34.72;5.43;;;;;;;-145.45;100.00;62759.84;5226669;28;20121;-84
2021/12/28 04:32:52;;;;;;;29.50;5.25;;;;;;;-145.45;100.00;62759.84;5244499;28;20493;-85
2021/12/28 04:35:23;;;;;;;33.58;5.35;;;;;;;-145.45;100.00;62759.84;5245069;28;20029;-84
2021/12/28 04:37:55;;;;;;;37.10;5.40;;;;;;;-145.45;100.00;62759.84;5240721;28;20117;-85
2021/12/28 04:40:27;;;;;;;28.83;5.35;;;;;;;-145.45;100.00;62759.84;5240469;28;20026;-85
2021/12/28 04:42:58;;;;;;;30.75;4.78;;;;;;;-145.45;100.00;62759.84;5246585;28;20036;-85
2021/12/28 04:45:30;;;;;;;27.25;4.35;;;;;;;-145.45;100.00;62759.84;5239183;28;20034;-85
2021/12/28 04:48:01;;;;;;;25.27;4.30;;;;;;;-145.45;100.00;62759.84;5241246;28;20076;-85
2021/12/28 04:50:38;;;;;;;27.73;4.80;;;;;;;-145.45;100.00;62759.84;5245739;28;20038;-85
2021/12/28 04:53:11;;;;;;;31.55;5.50;;;;;;;-145.45;100.00;62759.84;5239715;28;20494;-85
2021/12/28 04:55:46;;;;;;;26.95;4.20;;;;;;;-145.45;100.00;62759.84;5239450;28;20030;-85
2021/12/28 04:58:19;;;;;;;27.90;4.20;;;;;;;-145.45;100.00;62759.84;5247894;28;20092;-85
2021/12/28 05:00:52;;;;;;;24.08;5.05;;;;;;;-145.45;100.00;62759.84;5257238;28;20065;-85
2021/12/28 05:03:23;;;;;;;22.05;4.13;;;;;;;-145.45;100.00;62759.84;5256511;28;20065;-85
2021/12/28 05:05:55;;;;;;;27.88;4.47;;;;;;;-145.45;100.00;62759.84;5225086;28;20112;-86
2021/12/28 05:08:26;;;;;;;22.50;4.13;;;;;;;-145.45;100.00;62759.84;5219464;28;20057;-85
2021/12/28 05:10:58;;;;;;;20.30;4.13;;;;;;;-145.45;100.00;62759.84;5242157;28;20483;-86
2021/12/28 05:13:29;;;;;;;26.23;3.97;;;;;;;-145.45;100.00;62759.84;5238063;28;20036;-85
2021/12/28 05:16:00;;;;;;;27.10;3.97;;;;;;;-145.45;100.00;62759.84;5241057;28;20351;-85
2021/12/28 05:18:32;;;;;;;21.45;3.67;;;;;;;-145.45;100.00;62759.84;5229469;28;20027;-86
2021/12/28 05:21:03;;;;;;;17.63;3.00;;;;;;;-145.45;100.00;62759.84;5238184;28;20451;-85
2021/12/28 05:23:34;;;;;;;22.23;4.53;;;;;;;-145.45;100.00;62759.84;5227235;28;20022;-85
2021/12/28 05:26:05;;;;;;;29.70;4.25;;;;;;;-145.45;100.00;62759.84;5223891;28;20023;-86
2021/12/28 05:28:37;;;;;;;30.27;4.10;;;;;;;-145.45;100.00;62759.84;5231158;28;20026;-86
2021/12/28 05:31:08;;;;;;;30.48;4.45;;;;;;;-145.45;100.00;62759.84;5238697;28;20022;-85
2021/12/28 05:33:40;;;;;;;19.65;3.45;;;;;;;-145.45;100.00;62759.84;5243134;28;20057;-86
2021/12/28 05:36:12;;;;;;;23.30;4.38;;;;;;;-145.45;100.00;62759.84;5240412;28;20117;-86
2021/12/28 05:38:43;;;;;;;21.98;4.57;;;;;;;-145.45;100.00;62759.84;5235264;28;20119;-86
2021/12/28 05:41:15;;;;;;;26.10;4.00;;;;;;;-145.45;100.00;62759.84;5223093;28;20044;-87
2021/12/28 05:43:46;;;;;;;20.02;3.72;;;;;;;-145.45;100.00;62759.84;5212312;28;20029;-86
2021/12/28 05:46:17;;;;;;;18.95;3.42;;;;;;;-145.45;100.00;62759.84;5240940;28;20390;-85
2021/12/28 05:48:49;;;;;;;19.40;3.38;;;;;;;-145.45;100.00;62759.84;5235760;28;20477;-86
2021/12/28 05:51:20;;;;;;;23.23;4.13;;;;;;;-145.45;100.00;62759.84;5226804;28;20114;-86
2021/12/28 05:53:51;;;;;;;22.20;3.75;;;;;;;-145.45;100.00;62759.84;5246172;28;20030;-86
2021/12/28 05:56:23;;;;;;;17.30;2.90;;;;;;;-145.45;100.00;62759.84;5230314;28;20055;-85
2021/12/28 05:58:54;;;;;;;22.30;5.05;;;;;;;-145.45;100.00;62759.84;5239342;28;23055;-86
2021/12/28 06:01:28;;;;;;;25.67;3.92;;;;;;;-145.45;100.00;62759.84;5217084;28;20061;-86
2021/12/28 06:04:00;;;;;;;16.63;3.15;;;;;;;-145.45;100.00;62759.84;5244448;28;20138;-86
2021/12/28 06:06:31;;;;;;;12.20;2.80;;;;;;;-145.45;100.00;62759.84;5240525;28;20484;-86
2021/12/28 06:09:03;;;;;;;14.65;3.17;;;;;;;-145.45;100.00;62759.84;5282976;28;20076;-86
2021/12/28 06:11:34;;;;;;;16.05;3.00;;;;;;;-145.45;100.00;62759.84;5255679;28;20340;-86
2021/12/28 06:14:06;;;;;;;12.75;3.10;;;;;;;-145.45;100.00;62759.84;5265933;28;20014;-86
2021/12/28 06:16:38;;;;;;;12.27;3.15;;;;;;;-145.45;100.00;62759.84;5258280;28;20032;-86
2021/12/28 06:19:10;;;;;;;17.98;3.38;;;;;;;-145.45;100.00;62759.84;5264586;28;20063;-85
2021/12/28 06:21:42;;;;;;;15.00;2.90;;;;;;;-145.45;100.00;62759.84;5253053;28;20101;-86
2021/12/28 06:24:13;;;;;;;14.55;3.03;;;;;;;-145.45;100.00;62759.84;5263048;28;20022;-86
2021/12/28 06:26:45;;;;;;;15.32;3.05;;;;;;;-145.45;100.00;62759.84;5234139;28;20427;-85
2021/12/28 06:29:17;;;;;;;14.85;3.65;;;;;;;-145.45;100.00;62759.84;5261827;28;20033;-84
2021/12/28 06:31:48;;;;;;;15.48;2.75;;;;;;;-145.45;100.00;62759.84;5256793;28;20482;-87
2021/12/28 06:34:19;;;;;;;15.98;3.25;;;;;;;-145.45;100.00;62759.84;5262856;28;20040;-86
2021/12/28 06:36:50;;;;;;;14.25;2.95;;;;;;;-145.45;100.00;62759.84;5251775;28;20021;-86
2021/12/28 06:39:22;;;;;;;17.00;2.97;;;;;;;-145.45;100.00;62759.84;5262387;28;20145;-86
2021/12/28 06:41:53;;;;;;;9.38;2.55;;;;;;;-145.45;100.00;62759.84;5235039;28;20026;-86
2021/12/28 06:44:25;;;;;;;13.85;2.50;;;;;;;-145.45;100.00;62759.84;5261050;28;20036;-86
2021/12/28 06:46:56;;;;;;;14.60;2.90;;;;;;;-145.45;100.00;62759.84;5259824;28;20027;-86
2021/12/28 06:49:27;;;;;;;11.38;2.42;;;;;;;-145.45;100.00;62759.84;5262211;28;20025;-85
2021/12/28 06:51:59;;;;;;;10.05;3.10;;;;;;;-145.45;100.00;62759.84;5262282;28;20489;-85
2021/12/28 06:54:36;;;;;;;14.02;2.72;;;;;;;-145.45;100.00;62759.84;5265181;28;20028;-84
2021/12/28 06:57:09;;;;;;;14.00;3.28;;;;;;;-145.45;100.00;62759.84;5262176;28;20022;-84
2021/12/28 06:59:45;;;;;;;12.13;2.75;;;;;;;-145.45;100.00;62759.84;5257691;28;20478;-85
2021/12/28 07:02:17;;;;;;;7.63;2.00;;;;;;;-145.45;100.00;62759.84;5243089;28;20071;-85
2021/12/28 07:04:49;;;;;;;11.23;2.28;;;;;;;-145.45;100.00;62759.84;5266157;28;20029;-85
2021/12/28 07:07:20;;;;;;;12.02;2.28;;;;;;;-145.45;100.00;62759.84;5253166;28;20461;-84
2021/12/28 07:09:52;;;;;;;10.90;2.55;;;;;;;-145.45;100.00;62759.84;5252216;28;20076;-84
2021/12/28 07:12:23;;;;;;;11.38;2.40;;;;;;;-145.45;100.00;62759.84;5259435;28;20492;-85
2021/12/28 07:14:54;;;;;;;11.55;2.42;;;;;;;-145.45;100.00;62759.84;5242993;28;20021;-85
2021/12/28 07:17:28;;;;;;;10.23;1.90;;;;;;;-145.45;100.00;62759.84;5259182;28;20411;-85
2021/12/28 07:20:00;;;;;;;9.88;1.65;;;;;;;-145.45;100.00;62759.84;5230707;28;20053;-85
2021/12/28 07:22:31;;;;;;;11.30;2.03;;;;;;;-145.45;100.00;62759.84;5259877;28;20477;-86
2021/12/28 07:25:06;;;;;;;10.98;2.03;;;;;;;-145.45;100.00;62759.84;5267809;28;20022;-85
2021/12/28 07:27:38;;;;;;;9.20;2.35;;;;;;;-145.45;100.00;62759.84;5270067;28;20505;-86
2021/12/28 07:30:12;;;;;;;10.25;1.73;;;;;;;-145.45;100.00;62759.84;5268145;28;20045;-85
2021/12/28 07:32:43;;;;;;;8.18;1.90;;;;;;;-145.45;100.00;62759.84;5267576;28;20036;-85
2021/12/28 07:35:15;;;;;;;7.82;2.17;;;;;;;-145.45;100.00;62759.84;5269331;28;20017;-86
2021/12/28 07:37:46;;;;;;;8.38;2.20;;;;;;;-145.45;100.00;62759.84;5275101;28;20048;-86
2021/12/28 07:40:17;;;;;;;8.27;2.17;;;;;;;-145.45;100.00;62759.84;5264906;28;20200;-84
2021/12/28 07:42:49;;;;;;;8.40;1.85;;;;;;;-145.45;100.00;62759.84;5269330;28;30643;-85
2021/12/28 07:45:22;;;;;;;7.15;1.80;;;;;;;-145.45;100.00;62759.84;5270132;28;20104;-86
2021/12/28 07:47:54;;;;;;;9.48;2.22;;;;;;;-145.45;100.00;62759.84;5267974;28;20106;-85
2021/12/28 07:50:27;;;;;;;11.27;2.03;;;;;;;-145.45;100.00;62759.84;5267189;28;20501;-88
2021/12/28 07:52:59;;;;;;;8.95;2.30;;;;;;;-145.45;100.00;62759.84;5243089;28;20026;-87
2021/12/28 07:55:30;;;;;;;9.38;3.00;;;;;;;-145.45;100.00;62759.84;5263137;28;20033;-87
2021/12/28 07:58:02;;;;;;;10.45;2.42;;;;;;;-145.45;100.00;62759.84;5266887;28;20022;-88
2021/12/28 08:00:34;;;;;;;8.30;2.50;;;;;;;-145.45;100.00;62759.84;5253110;28;20036;-86
2021/12/28 08:03:05;;;;;;;6.70;2.35;;;;;;;-145.45;100.00;62759.84;5265080;28;20033;-86
2021/12/28 08:05:37;;;;;;;8.55;3.10;;;;;;;-145.45;100.00;62759.84;5263609;28;20024;-85
2021/12/28 08:08:08;;;;;;;8.68;3.10;;;;;;;-145.45;100.00;62759.84;5272279;28;20509;-85
2021/12/28 08:10:40;;;;;;;13.07;3.97;;;;;;;-145.45;100.00;62759.84;5265658;28;20026;-85
2021/12/28 08:13:11;;;;;;;8.75;3.35;;;;;;;-145.45;100.00;62759.84;5271133;28;20028;-84
2021/12/28 08:15:43;;;;;;;9.55;3.70;;;;;;;-145.45;100.00;62759.84;5272042;28;20024;-84
2021/12/28 08:18:15;;;;;;;9.32;4.07;;;;;;;-145.45;100.00;62759.84;5273243;28;20025;-87
2021/12/28 08:20:46;;;;;;;10.25;4.20;;;;;;;-145.45;100.00;62759.84;5267704;28;20037;-83
2021/12/28 08:23:18;;;;;;;12.20;5.47;;;;;;;-145.45;100.00;62759.84;5272494;28;20064;-86
2021/12/28 08:25:50;;;;;;;7.45;4.60;;;;;;;-145.45;100.00;62759.84;5265725;28;20480;-83
2021/12/28 08:28:21;;;;;;;11.27;5.30;;;;;;;-145.45;100.00;62759.84;5270383;28;20398;-83
2021/12/28 08:30:56;;;;;;;13.93;4.85;;;;;;;-145.45;100.00;62759.84;5268215;28;20029;-85
2021/12/28 08:33:28;;;;;;;6.32;4.35;;;;;;;-145.45;100.00;62759.84;5247623;28;20160;-83
2021/12/28 08:36:02;;;;;;;8.48;5.28;;;;;;;-145.45;100.00;62759.84;5253203;28;20534;-84
2021/12/28 08:38:34;;;;;;;8.35;5.53;;;;;;;-145.45;100.00;62759.84;5272729;28;20029;-86
2021/12/28 08:41:09;;;;;;;10.45;6.47;;;;;;;-145.45;100.00;62759.84;5276817;28;20037;-84
2021/12/28 08:43:40;;;;;;;9.95;6.35;;;;;;;-145.45;100.00;62759.84;5271301;28;20779;-85
2021/12/28 08:46:12;;;;;;;10.73;7.07;;;;;;;-145.45;100.00;62759.84;5251029;28;20127;-84
2021/12/28 08:48:47;;;;;;;10.55;8.35;;;;;;;-145.45;100.00;62759.84;5269094;28;20047;-85
2021/12/28 08:51:19;;;;;;;10.70;8.20;;;;;;;-145.45;100.00;62759.84;5268444;28;20060;-85
2021/12/28 08:53:51;;;;;;;11.18;8.27;;;;;;;-145.45;100.00;62759.84;5264949;28;20533;-84
2021/12/28 08:56:24;;;;;;;10.45;8.95;;;;;;;-145.45;100.00;62759.84;5263651;28;20029;-84
2021/12/28 08:58:56;;;;;;;12.27;9.30;;;;;;;-145.45;100.00;62759.84;5279074;28;20032;-84
2021/12/28 09:01:27;;;;;;;12.02;9.68;;;;;;;-145.45;100.00;62759.84;5270753;28;20079;-84
2021/12/28 09:03:58;;;;;;;13.45;9.52;;;;;;;-145.45;100.00;62759.84;5269949;28;20030;-84
2021/12/28 09:06:30;;;;;;;14.30;10.68;;;;;;;-145.45;100.00;62759.84;5268547;28;20060;-84
2021/12/28 09:09:01;;;;;;;12.82;10.20;;;;;;;-145.45;100.00;62759.84;5268119;28;30495;-84
2021/12/28 09:11:33;;;;;;;14.25;10.68;;;;;;;-145.45;100.00;62759.84;5269242;28;20028;-84
2021/12/28 09:14:04;;;;;;;12.98;10.32;;;;;;;-145.45;100.00;62759.84;5263378;28;20029;-85
2021/12/28 09:16:36;;;;;;;12.13;10.85;;;;;;;-145.45;100.00;62759.84;5253326;28;20421;-85
2021/12/28 09:19:07;;;;;;;16.38;11.68;;;;;;;-145.45;100.00;62759.84;5263062;28;20399;-85
2021/12/28 09:21:39;;;;;;;12.75;11.45;;;;;;;-145.45;100.00;62759.84;5262908;28;20052;-86
2021/12/28 09:24:10;;;;;;;11.82;10.60;;;;;;;-145.45;100.00;62759.84;5245780;28;20478;-85
2021/12/28 09:26:41;;;;;;;11.98;10.77;;;;;;;-145.45;100.00;62759.84;5262143;28;20240;-84
2021/12/28 09:29:13;;;;;;;15.95;12.30;;;;;;;-145.45;100.00;62759.84;5272220;28;21376;-84
2021/12/28 09:31:44;;;;;;;12.35;11.05;;;;;;;-145.45;100.00;62759.84;5272470;28;20385;-85
2021/12/28 09:34:16;;;;;;;11.63;10.43;;;;;;;-145.45;100.00;62759.84;5275901;28;20036;-85
2021/12/28 09:36:47;;;;;;;21.55;11.82;;;;;;;-145.45;100.00;62759.84;5266974;28;20021;-85
2021/12/28 09:39:22;;;;;;;13.25;11.75;;;;;;;-145.45;100.00;62759.84;5258303;28;20040;-87
2021/12/28 09:41:59;;;;;;;13.30;11.75;;;;;;;-145.45;100.00;62759.84;5251473;28;20024;-86
2021/12/28 09:44:33;;;;;;;13.15;11.93;;;;;;;-145.45;100.00;62759.84;5243991;28;20061;-86
2021/12/28 09:47:05;;;;;;;12.85;11.55;;;;;;;-145.45;100.00;62759.84;5262899;28;20981;-85
2021/12/28 09:49:37;;;;;;;13.45;12.15;;;;;;;-145.45;100.00;62759.84;5250829;28;20030;-86
2021/12/28 09:52:08;;;;;;;13.02;10.35;;;;;;;-145.45;100.00;62759.84;5249109;28;20387;-85
2021/12/28 09:54:40;;;;;;;11.63;10.63;;;;;;;-145.45;100.00;62759.84;5253452;28;20029;-85
2021/12/28 09:57:16;;;;;;;10.93;9.82;;;;;;;-145.45;100.00;62759.84;5250878;28;20070;-86
2021/12/28 09:59:48;;;;;;;9.75;8.80;;;;;;;-145.45;100.00;62759.84;5268319;28;20048;-86
2021/12/28 10:02:19;;;;;;;9.07;8.18;;;;;;;-145.45;100.00;62759.84;5234704;28;20034;-86
2021/12/28 10:05:05;;;;;;;8.60;7.80;;;;;;;-145.45;100.00;62759.84;5265455;28;20108;-87
2021/12/28 10:07:43;;;;;;;8.95;8.15;;;;;;;-145.45;100.00;62759.84;5235440;28;20104;-85
2021/12/28 10:10:15;;;;;;;7.43;6.75;;;;;;;-145.45;100.00;62759.84;5258246;28;20029;-85
2021/12/28 10:12:56;;;;;;;8.43;7.63;;;;;;;-145.45;100.00;62759.84;5253545;28;20037;-86
2021/12/28 10:15:31;;;;;;;8.25;7.45;;;;;;;-145.45;100.00;62759.84;5246909;28;20038;-84
2021/12/28 10:18:07;;;;;;;8.45;7.68;;;;;;;-145.45;100.00;62759.84;5255439;28;20115;-84
2021/12/28 10:20:53;;;;;;;7.93;7.05;;;;;;;-145.45;100.00;62759.84;5265289;28;20048;-84
2021/12/28 10:23:30;;;;;;;6.55;5.88;;;;;;;-145.45;100.00;62759.84;5274427;28;20386;-84
2021/12/28 10:26:05;;;;;;;6.18;5.45;;;;;;;-145.45;100.00;62759.84;5264916;28;20041;-84
2021/12/28 10:28:39;;;;;;;6.43;5.78;;;;;;;-145.45;100.00;62759.84;5272881;28;20025;-84
2021/12/28 10:31:18;;;;;;;7.20;4.90;;;;;;;-145.45;100.00;62759.84;5258947;28;20486;-84
2021/12/28 10:33:56;;;;;;;4.00;3.63;;;;;;;-145.45;100.00;62759.84;5256980;28;20174;-84
2021/12/28 10:36:34;;;;;;;3.65;3.28;;;;;;;-145.45;100.00;62759.84;5272586;28;20029;-85
2021/12/28 10:39:08;;;;;;;3.67;3.03;;;;;;;-145.45;100.00;62759.84;5272579;28;20044;-85
2021/12/28 10:41:42;;;;;;;4.88;2.60;;;;;;;-145.45;100.00;62759.84;5275504;28;20018;-85
2021/12/28 10:44:13;;;;;;;3.35;2.60;;;;;;;-145.45;100.00;62759.84;5266116;28;20457;-85
2021/12/28 10:46:47;;;;;;;2.97;1.98;;;;;;;-145.45;100.00;62759.84;5278378;28;20120;-85
2021/12/28 10:49:36;;;;;;;5.05;2.50;;;;;;;-145.45;100.00;62759.84;5276729;28;20482;-85
2021/12/28 10:52:33;;;;;;;2.63;2.28;;;;;;;-145.45;100.00;62759.84;5245706;28;20621;-86
2021/12/28 10:55:18;;;;;;;6.70;3.08;;;;;;;-145.45;100.00;62759.84;5250463;28;20048;-86
2021/12/28 10:57:56;;;;;;;5.45;2.70;;;;;;;-145.45;100.00;62759.84;5243209;28;20499;-86
2021/12/28 11:00:35;;;;;;;7.97;3.10;;;;;;;-145.45;100.00;62759.84;5257901;28;20583;-86
2021/12/28 11:03:13;;;;;;;4.78;3.20;;;;;;;-145.45;100.00;62759.84;5246346;28;20036;-85
2021/12/28 11:05:49;;;;;;;4.95;3.58;;;;;;;-145.45;100.00;62759.84;5245804;28;20518;-86
2021/12/28 11:08:45;;;;;;;4.75;3.60;;;;;;;-145.45;100.00;62759.84;5227299;28;20085;-86
2021/12/28 11:11:20;;;;;;;3.92;3.42;;;;;;;-145.45;100.00;62759.84;5233431;28;20046;-84
2021/12/28 11:14:06;;;;;;;4.50;3.45;;;;;;;-145.45;100.00;62759.84;5222924;28;20090;-86
2021/12/28 11:16:39;;;;;;;5.50;3.40;;;;;;;-145.45;100.00;62759.84;5225254;28;20490;-86
2021/12/28 11:19:10;;;;;;;3.70;3.38;;;;;;;-145.45;100.00;62759.84;5239789;28;20562;-85
2021/12/28 11:21:52;;;;;;;5.18;3.40;;;;;;;-145.45;100.00;62759.84;5211842;28;20124;-84
2021/12/28 11:24:31;;;;;;;3.58;3.17;;;;;;;-145.45;100.00;62759.84;5220119;28;20112;-85
2021/12/28 11:27:05;;;;;;;5.90;3.25;;;;;;;-145.45;100.00;62759.84;5250839;28;20042;-86
2021/12/28 11:29:39;;;;;;;2.92;2.72;;;;;;;-145.45;100.00;62759.84;5239598;28;20037;-86
2021/12/28 11:32:17;;;;;;;2.53;2.33;;;;;;;-145.45;100.00;62759.84;5262425;28;20018;-86